Time;durP1;ratioP1;P1;durP2;ratioP2;P2;SDS_P1;SDS_P2;PMS_P1;PMS_P2;Temp;Humidity;BMP_temperature;BMP_pressure;BME280_temperature;BME280_humidity;BME280_pressure;Samples;Min_cycle;Max_cycle;Signal;HPM_P1;HPM_P2
2021/07/06 00:01:41;;;;;;;21.83;4.28;;;15.60;77.10;;;;;;5037482;28;20067;-72
2021/07/06 00:04:07;;;;;;;27.23;5.00;;;15.60;77.30;;;;;;5037106;28;20028;-72
2021/07/06 00:06:33;;;;;;;19.65;5.05;;;15.60;77.30;;;;;;5037431;28;20473;-72
2021/07/06 00:08:58;;;;;;;29.83;4.45;;;15.60;78.00;;;;;;5036203;28;20116;-72
2021/07/06 00:11:24;;;;;;;28.63;5.55;;;15.60;77.70;;;;;;5037007;28;20044;-73
2021/07/06 00:13:50;;;;;;;28.00;6.28;;;15.60;77.80;;;;;;5035864;28;20065;-76
2021/07/06 00:16:16;;;;;;;28.63;4.93;;;15.60;78.10;;;;;;5036855;28;20037;-74
2021/07/06 00:18:42;;;;;;;23.02;4.70;;;15.60;77.80;;;;;;5027385;28;20053;-72
2021/07/06 00:21:09;;;;;;;24.90;5.35;;;15.60;77.60;;;;;;5037090;28;20072;-73
2021/07/06 00:23:45;;;;;;;21.58;5.40;;;15.60;77.40;;;;;;5036172;28;20022;-74
2021/07/06 00:26:12;;;;;;;16.17;5.45;;;15.60;77.00;;;;;;5036123;28;20034;-74
2021/07/06 00:28:45;;;;;;;18.33;3.92;;;15.50;77.00;;;;;;5036322;28;20092;-71
2021/07/06 00:31:12;;;;;;;29.13;5.25;;;15.50;76.90;;;;;;5036583;28;20036;-71
2021/07/06 00:33:38;;;;;;;17.95;4.32;;;15.50;77.20;;;;;;5031553;28;20552;-70
2021/07/06 00:36:04;;;;;;;22.55;4.45;;;15.50;77.30;;;;;;5035093;28;20037;-73
2021/07/06 00:38:32;;;;;;;23.83;5.43;;;15.40;77.50;;;;;;5034551;28;20029;-71
2021/07/06 00:41:00;;;;;;;27.42;5.65;;;15.50;77.20;;;;;;5036208;28;20026;-71
2021/07/06 00:43:26;;;;;;;20.83;5.05;;;15.40;77.40;;;;;;5035568;28;20049;-71
2021/07/06 00:46:00;;;;;;;23.38;5.43;;;15.40;77.40;;;;;;5035815;28;20025;-72
2021/07/06 00:48:29;;;;;;;25.08;4.57;;;15.40;77.30;;;;;;5015362;28;20057;-72
2021/07/06 00:50:56;;;;;;;24.00;4.85;;;15.40;77.00;;;;;;5033963;28;20037;-72
2021/07/06 00:53:23;;;;;;;48.85;17.60;;;15.40;77.20;;;;;;5036054;28;20026;-73
2021/07/06 00:55:51;;;;;;;22.85;6.88;;;15.40;76.90;;;;;;5035670;28;20032;-72
2021/07/06 00:58:18;;;;;;;26.23;7.05;;;15.30;76.30;;;;;;5035507;28;20018;-72
2021/07/06 01:00:44;;;;;;;19.15;7.38;;;15.30;76.00;;;;;;5022652;28;20032;-73
2021/07/06 01:03:10;;;;;;;30.85;9.70;;;15.30;76.00;;;;;;5036750;28;20116;-72
2021/07/06 01:05:37;;;;;;;30.25;9.45;;;15.30;75.60;;;;;;5040301;28;20033;-72
2021/07/06 01:08:03;;;;;;;50.15;19.83;;;15.30;75.30;;;;;;5039921;28;20041;-72
2021/07/06 01:10:29;;;;;;;33.03;6.38;;;15.30;75.30;;;;;;5040095;28;20151;-73
2021/07/06 01:12:56;;;;;;;21.98;4.40;;;15.30;75.20;;;;;;5039916;28;20036;-74
2021/07/06 01:15:25;;;;;;;25.58;4.78;;;15.30;74.90;;;;;;5035800;28;20030;-73
2021/07/06 01:18:13;;;;;;;21.38;5.03;;;15.30;74.70;;;;;;5031699;28;20030;-73
2021/07/06 01:20:46;;;;;;;18.13;4.25;;;15.20;74.50;;;;;;5034717;28;20126;-74
2021/07/06 01:23:12;;;;;;;20.40;4.63;;;15.20;74.70;;;;;;5039781;28;20028;-75
2021/07/06 01:25:40;;;;;;;21.27;4.90;;;15.20;74.60;;;;;;5039872;28;20025;-75
2021/07/06 01:28:06;;;;;;;19.33;4.03;;;15.20;74.50;;;;;;5039586;28;20071;-74
2021/07/06 01:30:33;;;;;;;18.70;5.00;;;15.20;74.30;;;;;;5039869;28;20029;-74
2021/07/06 01:33:00;;;;;;;22.17;5.00;;;15.10;74.20;;;;;;5036151;28;20076;-73
2021/07/06 01:35:26;;;;;;;17.50;4.30;;;15.20;74.10;;;;;;5031126;28;20025;-73
2021/07/06 01:37:57;;;;;;;18.30;4.53;;;15.20;74.00;;;;;;5039372;28;20021;-73
2021/07/06 01:40:25;;;;;;;19.63;4.63;;;15.10;74.10;;;;;;5039530;28;20441;-73
2021/07/06 01:42:53;;;;;;;23.00;4.60;;;15.10;73.50;;;;;;5039434;28;20025;-74
2021/07/06 01:45:21;;;;;;;22.52;4.53;;;15.10;73.60;;;;;;5039675;28;20102;-74
2021/07/06 01:47:58;;;;;;;19.35;4.28;;;15.10;73.60;;;;;;5039484;28;20085;-74
2021/07/06 01:50:27;;;;;;;26.15;5.20;;;15.10;73.40;;;;;;5039589;28;20500;-73
2021/07/06 01:52:56;;;;;;;14.80;4.30;;;15.10;73.50;;;;;;5039750;28;20034;-73
2021/07/06 01:55:25;;;;;;;29.08;5.25;;;15.10;73.50;;;;;;5037009;28;20067;-74
2021/07/06 01:57:52;;;;;;;19.98;4.20;;;15.10;73.60;;;;;;5039230;28;20013;-74
2021/07/06 02:00:21;;;;;;;23.40;4.95;;;15.10;73.60;;;;;;5036356;28;20029;-75
2021/07/06 02:02:49;;;;;;;18.75;5.18;;;15.10;73.70;;;;;;5038911;28;20018;-74
2021/07/06 02:05:18;;;;;;;17.35;4.68;;;15.10;73.80;;;;;;5038495;28;20022;-74
2021/07/06 02:07:46;;;;;;;24.70;4.30;;;15.10;73.70;;;;;;5040867;28;20025;-75
2021/07/06 02:10:13;;;;;;;23.58;4.95;;;15.10;73.80;;;;;;5037498;28;20476;-74
2021/07/06 02:12:43;;;;;;;21.17;5.57;;;15.10;73.70;;;;;;5038513;28;20029;-75
2021/07/06 02:15:11;;;;;;;23.05;4.32;;;15.10;73.70;;;;;;5037758;28;20029;-75
2021/07/06 02:17:37;;;;;;;26.45;4.50;;;15.10;73.70;;;;;;5038681;28;20463;-75
2021/07/06 02:20:09;;;;;;;20.63;4.88;;;15.20;73.60;;;;;;5038424;28;20068;-75
2021/07/06 02:22:36;;;;;;;19.85;4.47;;;15.20;73.50;;;;;;5038548;28;20021;-75
2021/07/06 02:25:03;;;;;;;19.08;4.82;;;15.20;73.60;;;;;;5038416;28;20064;-75
2021/07/06 02:27:29;;;;;;;22.02;4.38;;;15.20;73.70;;;;;;5037059;28;20021;-75
2021/07/06 02:29:55;;;;;;;14.77;3.85;;;15.20;73.80;;;;;;5038434;28;20068;-75
2021/07/06 02:32:20;;;;;;;16.08;3.83;;;15.30;73.70;;;;;;5038542;28;20075;-75
2021/07/06 02:34:46;;;;;;;23.27;6.10;;;15.30;73.70;;;;;;5037750;28;20038;-74
2021/07/06 02:37:12;;;;;;;19.30;3.35;;;15.30;73.60;;;;;;5038173;28;20032;-74
2021/07/06 02:39:38;;;;;;;18.15;4.45;;;15.30;73.60;;;;;;5038124;28;20030;-75
2021/07/06 02:42:04;;;;;;;19.13;3.85;;;15.30;73.90;;;;;;5038115;28;20077;-75
2021/07/06 02:44:30;;;;;;;17.05;3.65;;;15.20;73.90;;;;;;5038231;28;20026;-75
2021/07/06 02:46:55;;;;;;;18.88;4.53;;;15.20;74.00;;;;;;5038309;28;20381;-75
2021/07/06 02:49:21;;;;;;;24.17;4.25;;;15.20;74.00;;;;;;5037845;28;20028;-75
2021/07/06 02:51:47;;;;;;;16.55;4.28;;;15.20;73.80;;;;;;5037942;28;20013;-75
2021/07/06 02:54:13;;;;;;;17.10;3.28;;;15.20;73.90;;;;;;5037470;28;20034;-74
2021/07/06 02:56:39;;;;;;;15.65;4.57;;;15.20;73.80;;;;;;5037800;28;20032;-75
2021/07/06 02:59:05;;;;;;;15.32;3.72;;;15.20;74.00;;;;;;5038082;28;20026;-74
2021/07/06 03:01:30;;;;;;;15.18;2.75;;;15.20;74.20;;;;;;5037982;28;20021;-74
2021/07/06 03:04:15;;;;;;;20.02;3.33;;;15.30;74.30;;;;;;5038135;28;20041;-74
2021/07/06 03:06:40;;;;;;;16.10;2.50;;;15.30;74.40;;;;;;5037898;28;20029;-74
2021/07/06 03:09:06;;;;;;;13.65;2.80;;;15.20;74.50;;;;;;5038120;28;20472;-74
2021/07/06 03:11:32;;;;;;;17.55;3.25;;;15.30;74.80;;;;;;5037410;28;20029;-74
2021/07/06 03:13:58;;;;;;;12.80;2.97;;;15.30;74.80;;;;;;5038080;28;20025;-74
2021/07/06 03:16:24;;;;;;;12.30;2.22;;;15.30;75.00;;;;;;5037564;28;20026;-74
2021/07/06 03:18:49;;;;;;;14.90;3.08;;;15.30;75.30;;;;;;5037504;28;20056;-74
2021/07/06 03:21:15;;;;;;;12.40;2.28;;;15.30;75.30;;;;;;5037885;28;20025;-74
2021/07/06 03:23:41;;;;;;;14.38;2.50;;;15.30;75.40;;;;;;5037765;28;20107;-75
2021/07/06 03:26:07;;;;;;;9.40;2.30;;;15.30;75.80;;;;;;5037315;28;20029;-74
2021/07/06 03:28:32;;;;;;;10.02;2.28;;;15.30;75.70;;;;;;5037560;28;20464;-75
2021/07/06 03:30:58;;;;;;;15.63;2.63;;;15.30;75.60;;;;;;5037395;28;20527;-74
2021/07/06 03:33:24;;;;;;;18.60;2.88;;;15.30;75.80;;;;;;5031007;28;20030;-75
2021/07/06 03:35:50;;;;;;;15.98;2.17;;;15.30;75.90;;;;;;5036042;28;20083;-74
2021/07/06 03:38:16;;;;;;;10.55;2.13;;;15.30;76.00;;;;;;5024375;28;20029;-74
2021/07/06 03:40:42;;;;;;;11.00;2.47;;;15.30;76.10;;;;;;5037420;28;20016;-74
2021/07/06 03:43:08;;;;;;;9.10;2.08;;;15.30;76.30;;;;;;5037142;28;20079;-74
2021/07/06 03:45:34;;;;;;;12.48;2.35;;;15.30;76.30;;;;;;5037613;28;20044;-74
2021/07/06 03:48:00;;;;;;;13.15;2.15;;;15.30;76.40;;;;;;5037399;28;20033;-73
2021/07/06 03:50:27;;;;;;;12.88;2.88;;;15.20;76.50;;;;;;5037464;28;20104;-74
2021/07/06 03:52:57;;;;;;;13.70;2.63;;;15.30;76.70;;;;;;5037300;28;20026;-74
2021/07/06 03:55:25;;;;;;;11.02;2.25;;;15.30;76.90;;;;;;5037259;28;20021;-74
2021/07/06 03:57:51;;;;;;;13.50;2.58;;;15.30;76.70;;;;;;5037233;28;20072;-75
2021/07/06 04:00:22;;;;;;;16.05;3.13;;;15.30;76.60;;;;;;5037261;28;20025;-74
2021/07/06 04:02:48;;;;;;;13.98;2.72;;;15.30;76.90;;;;;;5037485;28;20056;-74
2021/07/06 04:05:15;;;;;;;12.50;3.00;;;15.30;76.70;;;;;;5037336;28;20116;-75
2021/07/06 04:07:41;;;;;;;14.07;4.20;;;15.30;76.80;;;;;;5037360;28;20094;-74
2021/07/06 04:10:12;;;;;;;18.20;3.53;;;15.30;77.10;;;;;;5036965;28;20022;-74
2021/07/06 04:12:39;;;;;;;13.20;3.00;;;15.30;76.90;;;;;;5037032;28;20048;-75
2021/07/06 04:15:07;;;;;;;16.92;2.90;;;15.30;77.00;;;;;;5037043;28;20049;-74
2021/07/06 04:17:33;;;;;;;15.70;2.90;;;15.30;77.20;;;;;;5032933;28;20469;-74
2021/07/06 04:19:59;;;;;;;15.30;3.33;;;15.30;76.90;;;;;;5032898;28;20167;-74
2021/07/06 04:22:25;;;;;;;14.38;3.67;;;15.30;77.10;;;;;;5037025;28;20439;-74
2021/07/06 04:24:51;;;;;;;13.25;2.75;;;15.30;77.90;;;;;;5037122;28;20029;-73
2021/07/06 04:27:16;;;;;;;14.18;3.13;;;15.30;77.50;;;;;;5036595;28;20113;-74
2021/07/06 04:29:42;;;;;;;14.85;2.88;;;15.30;77.00;;;;;;5037227;28;20040;-74
2021/07/06 04:32:09;;;;;;;15.18;2.15;;;15.30;77.20;;;;;;5034423;28;20030;-74
2021/07/06 04:34:35;;;;;;;18.58;3.95;;;15.30;77.10;;;;;;5028978;28;20049;-74
2021/07/06 04:37:00;;;;;;;12.57;3.42;;;15.30;77.20;;;;;;5032864;28;20022;-74
2021/07/06 04:39:26;;;;;;;15.98;3.00;;;15.30;76.90;;;;;;5039823;28;20423;-74
2021/07/06 04:41:52;;;;;;;14.68;2.90;;;15.30;77.10;;;;;;5037454;28;20026;-74
2021/07/06 04:44:18;;;;;;;12.00;3.03;;;15.30;77.10;;;;;;5032350;28;20063;-74
2021/07/06 04:46:43;;;;;;;10.80;2.05;;;15.30;77.20;;;;;;5040562;28;20021;-74
2021/07/06 04:49:09;;;;;;;13.55;3.00;;;15.30;77.00;;;;;;5040674;28;20108;-74
2021/07/06 04:51:36;;;;;;;10.45;1.85;;;15.30;76.90;;;;;;5040485;28;20476;-74
2021/07/06 04:54:02;;;;;;;16.25;2.53;;;15.30;77.20;;;;;;5040624;28;20080;-74
2021/07/06 04:56:28;;;;;;;11.57;2.75;;;15.30;77.20;;;;;;5039914;28;20029;-74
2021/07/06 04:58:55;;;;;;;10.50;2.13;;;15.20;77.20;;;;;;5040404;28;20407;-74
2021/07/06 05:01:21;;;;;;;14.50;2.75;;;15.30;77.10;;;;;;5036708;28;20049;-74
2021/07/06 05:03:49;;;;;;;11.13;2.47;;;15.30;77.20;;;;;;5033019;28;20029;-73
2021/07/06 05:06:19;;;;;;;12.32;2.50;;;15.30;77.00;;;;;;5040151;28;20080;-72
2021/07/06 05:08:46;;;;;;;13.52;2.20;;;15.20;77.10;;;;;;5040210;28;20096;-72
2021/07/06 05:11:13;;;;;;;13.75;3.03;;;15.30;76.90;;;;;;5040164;28;20055;-73
2021/07/06 05:13:38;;;;;;;13.45;2.15;;;15.30;76.80;;;;;;5040324;28;20093;-73
2021/07/06 05:16:05;;;;;;;12.25;2.85;;;15.30;76.90;;;;;;5040607;28;20060;-73
2021/07/06 05:18:30;;;;;;;10.75;2.42;;;15.30;76.90;;;;;;5039521;28;20041;-72
2021/07/06 05:20:56;;;;;;;16.60;3.28;;;15.30;76.90;;;;;;5039923;28;20047;-72
2021/07/06 05:23:22;;;;;;;13.55;2.70;;;15.30;76.60;;;;;;5039863;28;20024;-72
2021/07/06 05:25:48;;;;;;;11.18;2.10;;;15.30;76.70;;;;;;5039660;28;20037;-72
2021/07/06 05:28:14;;;;;;;7.53;2.20;;;15.20;76.70;;;;;;5038085;28;20021;-73
2021/07/06 05:30:39;;;;;;;14.98;3.15;;;15.20;76.50;;;;;;5039931;28;20068;-72
2021/07/06 05:33:05;;;;;;;13.52;3.45;;;15.20;76.50;;;;;;5039217;28;20022;-74
2021/07/06 05:35:31;;;;;;;9.88;2.33;;;15.20;76.80;;;;;;5039570;28;20033;-74
2021/07/06 05:37:57;;;;;;;14.20;2.38;;;15.10;76.50;;;;;;5027300;28;20448;-75
2021/07/06 05:40:23;;;;;;;18.77;2.05;;;15.20;76.80;;;;;;5039574;28;20021;-75
2021/07/06 05:42:49;;;;;;;8.32;2.35;;;15.10;76.80;;;;;;5038637;28;20031;-74
2021/07/06 05:45:15;;;;;;;8.70;2.17;;;15.20;77.20;;;;;;5038954;28;20084;-74
2021/07/06 05:47:41;;;;;;;12.63;2.35;;;15.20;77.80;;;;;;5039214;28;20026;-74
2021/07/06 05:50:10;;;;;;;8.70;2.58;;;15.30;77.50;;;;;;5037974;28;20056;-76
2021/07/06 05:52:36;;;;;;;13.38;1.80;;;15.30;77.40;;;;;;5037033;28;20021;-72
2021/07/06 05:55:04;;;;;;;11.10;2.72;;;15.40;77.00;;;;;;5034386;28;20503;-76
2021/07/06 05:57:30;;;;;;;15.38;4.15;;;15.40;77.00;;;;;;5050285;28;20087;-74
2021/07/06 05:59:57;;;;;;;11.57;1.90;;;15.50;76.90;;;;;;5039037;28;20492;-74
2021/07/06 06:02:23;;;;;;;10.23;1.80;;;15.50;76.90;;;;;;5037715;28;20091;-75
2021/07/06 06:04:49;;;;;;;9.88;2.45;;;15.50;76.90;;;;;;5039119;28;20033;-76
2021/07/06 06:07:14;;;;;;;8.30;1.80;;;15.50;76.70;;;;;;5038620;28;20048;-76
2021/07/06 06:09:40;;;;;;;9.57;1.65;;;15.60;76.60;;;;;;5039144;28;20036;-75
2021/07/06 06:12:08;;;;;;;11.80;2.60;;;15.60;76.60;;;;;;5038486;28;20423;-75
2021/07/06 06:14:33;;;;;;;12.25;2.15;;;15.60;76.10;;;;;;5039109;28;20026;-75
2021/07/06 06:16:59;;;;;;;12.48;2.72;;;15.60;76.20;;;;;;5037483;28;20540;-75
2021/07/06 06:19:25;;;;;;;11.73;1.85;;;15.60;76.30;;;;;;5037503;28;20504;-74
2021/07/06 06:21:51;;;;;;;10.07;1.98;;;15.60;76.20;;;;;;5038813;28;20448;-74
2021/07/06 06:24:16;;;;;;;11.68;1.83;;;15.60;76.20;;;;;;5041036;28;20026;-75
2021/07/06 06:26:42;;;;;;;8.18;2.30;;;15.60;76.10;;;;;;5037374;28;20017;-75
2021/07/06 06:29:08;;;;;;;5.57;1.75;;;15.70;76.30;;;;;;5037847;28;20035;-75
2021/07/06 06:31:34;;;;;;;8.60;1.60;;;15.70;76.50;;;;;;5024229;28;20024;-75
2021/07/06 06:33:59;;;;;;;9.82;1.50;;;15.70;76.50;;;;;;5036955;28;20033;-75
2021/07/06 06:36:25;;;;;;;9.77;2.00;;;15.70;76.30;;;;;;5034773;28;20044;-76
2021/07/06 06:38:51;;;;;;;5.28;1.60;;;15.80;76.30;;;;;;5033082;28;20032;-75
2021/07/06 06:41:17;;;;;;;8.40;2.08;;;15.80;76.30;;;;;;5037949;28;20025;-75
2021/07/06 06:43:43;;;;;;;6.93;1.60;;;15.80;76.20;;;;;;5038241;28;20080;-75
2021/07/06 06:46:08;;;;;;;7.63;1.23;;;15.80;76.00;;;;;;5038097;28;20484;-75
2021/07/06 06:48:34;;;;;;;9.75;1.52;;;15.80;76.00;;;;;;5038191;28;20030;-75
2021/07/06 06:51:00;;;;;;;5.07;1.20;;;15.80;75.80;;;;;;5037987;28;20056;-75
2021/07/06 06:53:26;;;;;;;7.85;1.35;;;15.80;76.30;;;;;;5038236;28;20051;-75
2021/07/06 06:55:56;;;;;;;7.13;1.38;;;15.90;76.10;;;;;;5038036;28;20054;-75
2021/07/06 06:58:23;;;;;;;6.65;1.98;;;16.00;76.00;;;;;;5037472;28;20044;-75
2021/07/06 07:00:48;;;;;;;9.32;1.80;;;16.10;76.10;;;;;;5037466;28;20369;-75
2021/07/06 07:03:14;;;;;;;9.13;2.17;;;16.30;75.80;;;;;;5038072;28;20029;-74
2021/07/06 07:05:40;;;;;;;9.65;1.45;;;16.40;75.50;;;;;;5037407;28;20021;-75
2021/07/06 07:08:06;;;;;;;9.88;1.95;;;16.70;75.70;;;;;;5031954;28;20052;-74
2021/07/06 07:10:32;;;;;;;7.47;1.83;;;17.00;74.10;;;;;;5036944;28;20033;-75
2021/07/06 07:12:58;;;;;;;8.05;1.75;;;17.40;73.50;;;;;;5036991;28;20626;-74
2021/07/06 07:15:24;;;;;;;11.52;1.88;;;17.70;73.60;;;;;;5037082;28;20040;-75
2021/07/06 07:17:50;;;;;;;8.13;2.20;;;18.00;70.80;;;;;;5035911;28;20032;-74
2021/07/06 07:20:16;;;;;;;14.05;2.30;;;18.20;71.00;;;;;;5037152;28;20089;-74
2021/07/06 07:22:43;;;;;;;10.82;2.00;;;18.20;69.80;;;;;;5037311;28;20045;-78
2021/07/06 07:25:11;;;;;;;12.38;2.58;;;18.20;70.30;;;;;;5032678;28;20060;-75
2021/07/06 07:27:37;;;;;;;7.22;2.28;;;18.30;69.40;;;;;;5037476;28;20021;-76
2021/07/06 07:30:05;;;;;;;10.68;2.50;;;18.30;68.70;;;;;;5048541;28;20049;-75
2021/07/06 07:32:31;;;;;;;8.73;1.73;;;18.30;69.30;;;;;;5041832;28;20102;-77
2021/07/06 07:34:57;;;;;;;10.38;3.03;;;18.40;69.40;;;;;;5034881;28;20476;-74
2021/07/06 07:37:23;;;;;;;11.07;4.32;;;18.70;69.90;;;;;;5036426;28;20030;-75
2021/07/06 07:39:49;;;;;;;10.95;3.20;;;19.20;71.00;;;;;;5034759;28;20092;-75
2021/07/06 07:42:19;;;;;;;11.43;2.67;;;19.50;67.60;;;;;;5037052;28;20476;-75
2021/07/06 07:44:45;;;;;;;5.75;1.73;;;19.70;67.10;;;;;;5032557;28;20447;-76
2021/07/06 07:47:11;;;;;;;10.93;2.63;;;20.00;67.40;;;;;;5036256;28;20030;-76
2021/07/06 07:49:37;;;;;;;10.23;1.88;;;20.40;66.30;;;;;;5035818;28;20059;-76
2021/07/06 07:52:03;;;;;;;11.80;2.60;;;20.80;66.30;;;;;;5037295;28;20399;-75
2021/07/06 07:54:29;;;;;;;8.07;2.17;;;21.20;68.10;;;;;;5036949;28;20473;-75
2021/07/06 07:56:56;;;;;;;11.07;1.90;;;21.40;65.20;;;;;;5036685;28;20073;-76
2021/07/06 07:59:21;;;;;;;15.00;2.90;;;21.40;61.50;;;;;;5036918;28;20071;-76
2021/07/06 08:01:47;;;;;;;10.82;2.40;;;21.30;61.80;;;;;;5036730;28;20025;-75
2021/07/06 08:04:13;;;;;;;11.35;2.10;;;21.20;62.40;;;;;;5036970;28;20020;-76
2021/07/06 08:06:39;;;;;;;12.00;2.75;;;21.20;61.80;;;;;;5036515;28;20472;-75
2021/07/06 08:09:05;;;;;;;12.38;2.42;;;21.10;63.10;;;;;;5036919;28;20156;-75
2021/07/06 08:11:31;;;;;;;8.60;2.60;;;21.00;62.80;;;;;;5036080;28;20026;-75
2021/07/06 08:13:57;;;;;;;13.57;2.58;;;20.80;61.60;;;;;;5038872;28;20365;-75
2021/07/06 08:16:23;;;;;;;12.27;3.70;;;20.70;60.70;;;;;;5040031;28;20037;-75
2021/07/06 08:18:49;;;;;;;12.02;2.40;;;20.50;61.00;;;;;;5040271;28;20471;-75
2021/07/06 08:21:15;;;;;;;11.70;2.42;;;20.20;61.20;;;;;;5040942;28;20026;-76
2021/07/06 08:23:40;;;;;;;13.32;2.40;;;20.20;63.90;;;;;;5039976;28;20550;-76
2021/07/06 08:26:06;;;;;;;11.05;2.78;;;20.20;63.20;;;;;;5055899;28;20102;-75
2021/07/06 08:28:36;;;;;;;12.02;3.22;;;20.50;64.30;;;;;;5040669;28;20096;-75
2021/07/06 08:31:02;;;;;;;14.35;4.35;;;21.00;63.50;;;;;;5054239;28;20033;-75
2021/07/06 08:33:27;;;;;;;9.35;2.42;;;21.60;65.80;;;;;;5035719;28;20124;-75
2021/07/06 08:35:53;;;;;;;9.90;2.10;;;22.20;66.20;;;;;;5040077;28;20037;-75
2021/07/06 08:38:19;;;;;;;9.73;2.22;;;22.50;59.80;;;;;;5040410;28;20029;-75
2021/07/06 08:40:49;;;;;;;11.88;2.35;;;22.80;61.90;;;;;;5039823;28;20036;-76
2021/07/06 08:43:15;;;;;;;8.70;1.95;;;23.20;65.90;;;;;;5039645;28;20018;-76
2021/07/06 08:45:43;;;;;;;8.38;1.80;;;23.50;58.10;;;;;;5040423;28;20113;-74
2021/07/06 08:48:12;;;;;;;7.32;1.88;;;23.40;56.10;;;;;;5038557;28;20036;-75
2021/07/06 08:50:39;;;;;;;8.63;1.95;;;23.50;56.70;;;;;;5038976;28;20034;-74
2021/07/06 08:53:05;;;;;;;8.05;1.90;;;23.50;56.50;;;;;;5037280;28;20128;-74
2021/07/06 08:55:30;;;;;;;10.00;1.90;;;23.40;55.80;;;;;;5038429;28;20470;-74
2021/07/06 08:57:56;;;;;;;10.93;2.45;;;23.00;54.50;;;;;;5038251;28;20060;-73
2021/07/06 09:00:23;;;;;;;12.45;2.15;;;22.60;56.10;;;;;;5039234;28;20116;-73
2021/07/06 09:02:59;;;;;;;10.02;1.90;;;22.20;56.60;;;;;;5037598;28;20026;-74
2021/07/06 09:05:26;;;;;;;7.57;1.80;;;21.90;57.80;;;;;;5042975;28;20025;-74
2021/07/06 09:07:52;;;;;;;11.65;1.80;;;21.80;59.00;;;;;;5045521;28;20082;-74
2021/07/06 09:10:20;;;;;;;10.45;2.50;;;21.70;57.80;;;;;;5046707;28;20025;-74
2021/07/06 09:12:46;;;;;;;13.88;2.35;;;21.60;59.00;;;;;;5034443;28;20029;-74
2021/07/06 09:15:29;;;;;;;9.57;2.42;;;21.40;58.50;;;;;;5038354;28;20029;-73
2021/07/06 09:18:16;;;;;;;11.13;2.38;;;21.20;58.80;;;;;;5053633;28;20026;-74
2021/07/06 09:21:02;;;;;;;8.75;2.20;;;21.60;62.20;;;;;;5034921;28;20508;-73
2021/07/06 09:23:44;;;;;;;7.93;1.88;;;22.40;64.50;;;;;;5035849;28;20017;-73
2021/07/06 09:26:24;;;;;;;15.38;5.80;;;23.40;60.80;;;;;;5037902;28;20067;-73
2021/07/06 09:28:58;;;;;;;14.65;6.97;;;24.30;57.90;;;;;;5033601;28;20037;-75
2021/07/06 09:31:35;;;;;;;9.38;2.47;;;25.00;57.20;;;;;;5036861;28;20044;-73
2021/07/06 09:34:09;;;;;;;8.43;3.22;;;25.10;51.30;;;;;;5035756;28;20033;-73
2021/07/06 09:36:45;;;;;;;9.23;2.45;;;24.80;54.50;;;;;;5029388;28;20022;-73
2021/07/06 09:39:11;;;;;;;9.25;2.60;;;24.70;53.40;;;;;;5034473;28;20021;-72
2021/07/06 09:41:38;;;;;;;9.60;3.50;;;24.40;53.70;;;;;;5036097;28;20029;-73
2021/07/06 09:44:24;;;;;;;11.10;2.60;;;24.40;56.30;;;;;;5037460;28;20032;-73
2021/07/06 09:47:01;;;;;;;7.95;2.05;;;24.30;53.40;;;;;;5035648;28;20495;-72
2021/07/06 09:49:31;;;;;;;14.70;5.70;;;24.20;53.10;;;;;;5035476;28;20399;-72
2021/07/06 09:52:08;;;;;;;13.43;5.45;;;24.40;52.10;;;;;;5033893;28;20092;-72
2021/07/06 09:54:36;;;;;;;8.38;2.05;;;24.40;51.70;;;;;;5034342;28;20018;-73
2021/07/06 09:57:04;;;;;;;11.30;2.60;;;24.40;51.40;;;;;;5036038;28;20051;-73
2021/07/06 09:59:30;;;;;;;7.18;1.60;;;24.30;53.50;;;;;;5036687;28;20018;-73
2021/07/06 10:02:02;;;;;;;8.27;1.90;;;24.10;53.00;;;;;;5038818;28;20048;-71
2021/07/06 10:04:29;;;;;;;8.57;1.92;;;24.10;53.20;;;;;;5038645;28;20068;-74
2021/07/06 10:06:57;;;;;;;11.60;2.10;;;24.20;56.40;;;;;;5039890;28;20036;-72
2021/07/06 10:09:25;;;;;;;6.63;1.50;;;24.20;54.20;;;;;;5037913;28;20029;-72
2021/07/06 10:11:53;;;;;;;8.38;1.58;;;24.20;52.00;;;;;;5038389;28;20021;-74
2021/07/06 10:14:20;;;;;;;8.25;1.83;;;24.40;50.70;;;;;;5037743;28;20103;-71
2021/07/06 10:16:47;;;;;;;8.30;2.17;;;24.60;51.00;;;;;;5033998;28;20025;-73
2021/07/06 10:19:13;;;;;;;9.95;5.47;;;24.60;48.90;;;;;;4989726;28;1290870;-72
2021/07/06 10:21:39;;;;;;;7.22;1.58;;;24.60;52.50;;;;;;5039527;28;20037;-73
2021/07/06 10:24:06;;;;;;;5.68;1.52;;;24.80;51.30;;;;;;5037985;28;20018;-72
2021/07/06 10:26:35;;;;;;;16.15;10.02;;;25.00;52.30;;;;;;5036108;28;20116;-71
2021/07/06 10:29:02;;;;;;;17.20;10.55;;;25.70;52.40;;;;;;5037302;28;20037;-72
2021/07/06 10:31:30;;;;;;;15.88;10.13;;;26.20;51.00;;;;;;5037511;28;20038;-77
2021/07/06 10:33:55;;;;;;;6.28;1.65;;;26.70;51.20;;;;;;5037774;28;20531;-72
2021/07/06 10:36:39;;;;;;;7.93;1.70;;;27.20;50.00;;;;;;5036560;28;20025;-72
2021/07/06 10:39:08;;;;;;;5.07;1.15;;;28.00;51.40;;;;;;5026076;28;20044;-71
2021/07/06 10:41:36;;;;;;;4.18;1.00;;;28.70;48.30;;;;;;5037314;28;20034;-72
2021/07/06 10:44:05;;;;;;;5.60;1.10;;;29.20;47.20;;;;;;5038202;28;20025;-71
2021/07/06 10:46:51;;;;;;;5.72;1.35;;;29.70;44.60;;;;;;5038231;28;20116;-71
2021/07/06 10:49:27;;;;;;;4.90;1.27;;;29.90;44.60;;;;;;5036897;28;20025;-71
2021/07/06 10:51:55;;;;;;;5.35;1.10;;;30.20;45.70;;;;;;5038255;28;20033;-72
2021/07/06 10:54:21;;;;;;;4.47;1.10;;;30.40;47.60;;;;;;5037595;28;20033;-72
2021/07/06 10:56:48;;;;;;;4.47;1.38;;;30.70;46.20;;;;;;5038004;28;20373;-72
2021/07/06 10:59:50;;;;;;;5.20;1.58;;;31.00;45.90;;;;;;5038073;28;20033;-72
2021/07/06 11:02:24;;;;;;;5.28;1.13;;;31.10;47.00;;;;;;5037447;28;20022;-72
2021/07/06 11:04:52;;;;;;;6.90;1.38;;;31.00;46.40;;;;;;5038321;28;20108;-71
2021/07/06 11:07:49;;;;;;;8.73;1.35;;;31.10;48.40;;;;;;5037897;28;20025;-72
2021/07/06 11:10:16;;;;;;;5.63;1.75;;;31.40;46.90;;;;;;5037639;28;20474;-71
2021/07/06 11:12:48;;;;;;;10.57;1.67;;;31.30;44.00;;;;;;5024881;28;20040;-72
2021/07/06 11:15:15;;;;;;;7.32;1.83;;;30.90;47.30;;;;;;5037984;28;20037;-71
2021/07/06 11:17:45;;;;;;;8.40;1.70;;;30.50;45.00;;;;;;5032500;28;20026;-72
2021/07/06 11:20:14;;;;;;;6.75;1.38;;;30.10;41.30;;;;;;5035385;28;20052;-71
2021/07/06 11:22:48;;;;;;;6.72;1.70;;;29.50;42.30;;;;;;5033323;28;20048;-72
2021/07/06 11:25:24;;;;;;;7.25;1.58;;;29.20;46.00;;;;;;5032072;28;20025;-71
2021/07/06 11:28:11;;;;;;;6.90;1.40;;;29.40;47.40;;;;;;5037689;28;20026;-72
2021/07/06 11:30:50;;;;;;;9.90;1.67;;;29.30;42.00;;;;;;5037644;28;20029;-71
2021/07/06 11:33:22;;;;;;;7.07;1.80;;;28.90;44.50;;;;;;5032047;28;20389;-71
2021/07/06 11:35:58;;;;;;;;;;;28.40;45.40;;;;;;5038263;28;20091;-71
2021/07/06 11:38:25;;;;;;;7.20;2.08;;;27.90;45.90;;;;;;5033571;28;19928;-72
2021/07/06 11:41:01;;;;;;;8.50;2.05;;;27.40;46.40;;;;;;5037483;28;20373;-71
2021/07/06 11:43:30;;;;;;;7.20;1.63;;;26.90;46.00;;;;;;5037288;28;20483;-71
2021/07/06 11:46:01;;;;;;;8.77;1.92;;;26.50;47.00;;;;;;5037784;28;20032;-71
2021/07/06 11:48:30;;;;;;;9.60;1.88;;;26.20;48.30;;;;;;5037527;28;20033;-71
2021/07/06 11:50:59;;;;;;;7.93;2.20;;;26.00;48.60;;;;;;5037421;28;20385;-71
2021/07/06 11:53:27;;;;;;;11.57;2.88;;;25.90;48.70;;;;;;5024427;28;20033;-71
2021/07/06 11:55:54;;;;;;;11.38;2.53;;;25.80;48.20;;;;;;5037099;28;20029;-71
2021/07/06 11:58:23;;;;;;;8.00;2.13;;;25.60;47.50;;;;;;5037413;28;20452;-71
2021/07/06 12:00:50;;;;;;;8.85;2.85;;;25.50;48.20;;;;;;5037407;28;20027;-71
2021/07/06 12:03:35;;;;;;;10.00;2.35;;;25.30;47.10;;;;;;5037736;28;20093;-71
2021/07/06 12:06:18;;;;;;;13.20;3.28;;;25.10;49.30;;;;;;5037206;28;20112;-71
2021/07/06 12:08:52;;;;;;;10.68;2.80;;;24.80;49.40;;;;;;5037351;28;20033;-71
2021/07/06 12:11:23;;;;;;;10.13;2.67;;;24.60;49.40;;;;;;5025065;28;20105;-71
2021/07/06 12:14:09;;;;;;;7.28;2.50;;;24.40;50.20;;;;;;5037149;28;20391;-71
2021/07/06 12:16:37;;;;;;;8.30;2.97;;;24.20;49.90;;;;;;5037365;28;20049;-71
2021/07/06 12:19:13;;;;;;;9.88;3.08;;;24.00;51.60;;;;;;5028436;28;20404;-71
2021/07/06 12:21:42;;;;;;;11.88;3.17;;;23.90;53.00;;;;;;5037322;28;20156;-71
2021/07/06 12:24:09;;;;;;;10.15;3.08;;;24.10;52.80;;;;;;5037007;28;20025;-71
2021/07/06 12:26:47;;;;;;;9.82;3.08;;;24.20;53.20;;;;;;5032539;28;20022;-71
2021/07/06 12:29:24;;;;;;;11.68;3.45;;;24.30;52.90;;;;;;5024651;28;20025;-71
2021/07/06 12:31:50;;;;;;;9.55;2.95;;;24.40;52.10;;;;;;5037014;28;20053;-71
2021/07/06 12:34:17;;;;;;;13.73;3.28;;;24.30;51.70;;;;;;5031884;28;20060;-71
2021/07/06 12:36:46;;;;;;;11.30;2.88;;;24.10;50.70;;;;;;5033245;28;20026;-71
2021/07/06 12:39:22;;;;;;;10.35;2.60;;;23.90;52.80;;;;;;5037127;28;20035;-71
2021/07/06 12:42:00;;;;;;;11.65;3.60;;;23.80;53.50;;;;;;5036602;28;20022;-71
2021/07/06 12:44:31;;;;;;;10.00;3.13;;;23.60;54.50;;;;;;5037098;28;20071;-71
2021/07/06 12:47:21;;;;;;;8.75;3.20;;;23.50;55.10;;;;;;5024157;28;20022;-71